Time;durP1;ratioP1;P1;durP2;ratioP2;P2;SDS_P1;SDS_P2;PMS_P1;PMS_P2;Temp;Humidity;BMP_temperature;BMP_pressure;BME280_temperature;BME280_humidity;BME280_pressure;Samples;Min_cycle;Max_cycle;Signal;HPM_P1;HPM_P2
2021/05/14 00:01:04;;;;;;;2.67;2.10;;;;;;;;;;4899186;29;20244;-78
2021/05/14 00:03:32;;;;;;;3.93;2.60;;;;;;;;;;4901043;29;20224;-76
2021/05/14 00:06:00;;;;;;;3.17;2.47;;;;;;;;;;4904000;29;20264;-79
2021/05/14 00:08:28;;;;;;;3.17;2.50;;;;;;;;;;4903123;29;20235;-78
2021/05/14 00:10:57;;;;;;;2.67;2.10;;;;;;;;;;4890176;28;20239;-77
2021/05/14 00:13:25;;;;;;;2.67;2.47;;;;;;;;;;4888351;29;20236;-77
2021/05/14 00:15:53;;;;;;;3.13;2.17;;;;;;;;;;4904487;28;20234;-77
2021/05/14 00:18:21;;;;;;;2.80;2.40;;;;;;;;;;4887845;29;20254;-79
2021/05/14 00:20:50;;;;;;;3.80;2.60;;;;;;;;;;4902800;29;20236;-79
2021/05/14 00:23:18;;;;;;;2.83;2.43;;;;;;;;;;4882205;29;20231;-79
2021/05/14 00:25:46;;;;;;;3.10;2.60;;;;;;;;;;4900964;29;20221;-79
2021/05/14 00:28:15;;;;;;;3.03;2.40;;;;;;;;;;4903943;28;20239;-78
2021/05/14 00:30:43;;;;;;;3.33;2.73;;;;;;;;;;4901038;28;20599;-77
2021/05/14 00:33:12;;;;;;;3.63;2.77;;;;;;;;;;4903622;29;20232;-79
2021/05/14 00:35:40;;;;;;;6.27;2.93;;;;;;;;;;4904553;28;20232;-77
2021/05/14 00:38:08;;;;;;;3.33;2.47;;;;;;;;;;4917934;28;20231;-78
2021/05/14 00:40:36;;;;;;;4.60;3.00;;;;;;;;;;4905472;29;20246;-77
2021/05/14 00:43:04;;;;;;;4.03;2.70;;;;;;;;;;4903223;28;20237;-79
2021/05/14 00:45:33;;;;;;;3.60;2.70;;;;;;;;;;4911358;29;20228;-78
2021/05/14 00:48:01;;;;;;;3.50;2.67;;;;;;;;;;4909499;28;20235;-78
2021/05/14 00:50:29;;;;;;;3.17;2.80;;;;;;;;;;4912406;28;20231;-79
2021/05/14 00:52:57;;;;;;;3.10;2.43;;;;;;;;;;4893473;28;20619;-78
2021/05/14 00:55:25;;;;;;;3.13;2.77;;;;;;;;;;4913634;28;20238;-78
2021/05/14 00:57:53;;;;;;;3.93;2.70;;;;;;;;;;4908168;28;20249;-77
2021/05/14 01:00:21;;;;;;;5.67;2.77;;;;;;;;;;4907227;28;20240;-78
2021/05/14 01:02:53;;;;;;;4.77;2.67;;;;;;;;;;4904285;28;20224;-79
2021/05/14 01:05:22;;;;;;;4.87;2.60;;;;;;;;;;4901926;29;20736;-78
2021/05/14 01:07:50;;;;;;;3.83;3.00;;;;;;;;;;4877522;29;20233;-78
2021/05/14 01:10:19;;;;;;;3.50;3.17;;;;;;;;;;4906263;28;20235;-78
2021/05/14 01:12:47;;;;;;;3.40;2.97;;;;;;;;;;4893604;28;20233;-78
2021/05/14 01:15:15;;;;;;;4.73;3.23;;;;;;;;;;4902159;28;20228;-79
2021/05/14 01:17:44;;;;;;;4.07;2.97;;;;;;;;;;4894058;28;20240;-79
2021/05/14 01:20:13;;;;;;;3.67;2.77;;;;;;;;;;4900481;28;20250;-77
2021/05/14 01:22:42;;;;;;;2.93;2.60;;;;;;;;;;4902184;28;20712;-78
2021/05/14 01:25:11;;;;;;;4.03;3.20;;;;;;;;;;4900745;28;20233;-78
2021/05/14 01:27:39;;;;;;;4.30;3.20;;;;;;;;;;4904397;29;20232;-76
2021/05/14 01:30:09;;;;;;;4.13;2.80;;;;;;;;;;4906253;28;20240;-77
2021/05/14 01:32:37;;;;;;;3.93;2.90;;;;;;;;;;4911259;29;20228;-78
2021/05/14 01:35:07;;;;;;;3.50;2.90;;;;;;;;;;4896662;28;20231;-77
2021/05/14 01:37:39;;;;;;;4.43;2.97;;;;;;;;;;4907583;28;20251;-76
2021/05/14 01:40:09;;;;;;;3.27;2.97;;;;;;;;;;4900891;28;20645;-77
2021/05/14 01:42:42;;;;;;;7.17;3.00;;;;;;;;;;4899165;29;20251;-76
2021/05/14 01:45:11;;;;;;;5.17;2.87;;;;;;;;;;4895723;28;20228;-77
2021/05/14 01:47:39;;;;;;;3.67;2.90;;;;;;;;;;4914551;28;20236;-78
2021/05/14 01:50:09;;;;;;;4.10;3.03;;;;;;;;;;4913108;29;20586;-78
2021/05/14 01:52:37;;;;;;;3.17;2.87;;;;;;;;;;4913982;29;20240;-79
2021/05/14 01:55:07;;;;;;;3.20;2.87;;;;;;;;;;4884703;29;20236;-76
2021/05/14 01:57:36;;;;;;;3.37;3.00;;;;;;;;;;4901816;29;20236;-78
2021/05/14 02:00:05;;;;;;;2.87;2.57;;;;;;;;;;4887505;29;20233;-77
2021/05/14 02:02:34;;;;;;;3.67;3.10;;;;;;;;;;4899348;29;20230;-78
2021/05/14 02:05:02;;;;;;;3.73;2.70;;;;;;;;;;4912877;28;20236;-78
2021/05/14 02:07:30;;;;;;;3.67;3.07;;;;;;;;;;4900085;29;20228;-80
2021/05/14 02:09:58;;;;;;;3.37;3.07;;;;;;;;;;4899412;29;20261;-78
2021/05/14 02:12:26;;;;;;;3.80;2.87;;;;;;;;;;4896878;29;20239;-78
2021/05/14 02:14:55;;;;;;;5.23;3.70;;;;;;;;;;4889426;28;20241;-78
2021/05/14 02:17:23;;;;;;;3.40;2.80;;;;;;;;;;4898386;28;20230;-78
2021/05/14 02:19:53;;;;;;;3.40;2.90;;;;;;;;;;4884068;29;20238;-77
2021/05/14 02:22:21;;;;;;;5.20;3.07;;;;;;;;;;4897056;28;20239;-78
2021/05/14 02:24:50;;;;;;;2.93;2.63;;;;;;;;;;4902797;29;20229;-78
2021/05/14 02:27:18;;;;;;;5.40;3.03;;;;;;;;;;4896571;29;20703;-77
2021/05/14 02:29:47;;;;;;;3.63;2.77;;;;;;;;;;4894529;29;20237;-77
2021/05/14 02:32:15;;;;;;;4.07;3.00;;;;;;;;;;4907040;28;20237;-76
2021/05/14 02:34:44;;;;;;;4.13;2.87;;;;;;;;;;4906585;28;20238;-77
2021/05/14 02:37:12;;;;;;;4.00;2.60;;;;;;;;;;4905718;29;20241;-78
2021/05/14 02:39:40;;;;;;;3.10;2.77;;;;;;;;;;4905631;29;20228;-80
2021/05/14 02:42:09;;;;;;;3.03;2.67;;;;;;;;;;4910829;28;20223;-77
2021/05/14 02:44:37;;;;;;;3.90;2.60;;;;;;;;;;4919117;28;20229;-78
2021/05/14 02:47:05;;;;;;;2.60;2.40;;;;;;;;;;4918601;28;20228;-78
2021/05/14 02:49:34;;;;;;;2.80;2.50;;;;;;;;;;4912424;29;20230;-81
2021/05/14 02:52:02;;;;;;;3.20;2.73;;;;;;;;;;4920119;28;20231;-79
2021/05/14 02:54:32;;;;;;;3.03;2.43;;;;;;;;;;4899403;29;20244;-78
2021/05/14 02:57:01;;;;;;;3.20;2.53;;;;;;;;;;4895547;29;20254;-81
2021/05/14 02:59:29;;;;;;;2.83;2.53;;;;;;;;;;4901525;29;20239;-78
2021/05/14 03:01:57;;;;;;;4.30;2.77;;;;;;;;;;4890259;29;20808;-79
2021/05/14 03:04:27;;;;;;;3.03;2.57;;;;;;;;;;4906752;29;20242;-77
2021/05/14 03:06:56;;;;;;;5.00;2.73;;;;;;;;;;4901089;29;20236;-78
2021/05/14 03:09:24;;;;;;;2.67;2.47;;;;;;;;;;4907211;28;20262;-79
2021/05/14 03:11:52;;;;;;;3.23;2.93;;;;;;;;;;4889344;29;20228;-78
2021/05/14 03:14:21;;;;;;;3.93;2.70;;;;;;;;;;4910877;28;20231;-78
2021/05/14 03:16:49;;;;;;;2.80;2.50;;;;;;;;;;4910165;29;20228;-78
2021/05/14 03:19:17;;;;;;;3.10;2.70;;;;;;;;;;4902497;28;20238;-77
2021/05/14 03:21:45;;;;;;;3.90;2.50;;;;;;;;;;4901094;29;20239;-77
2021/05/14 03:24:14;;;;;;;3.60;2.87;;;;;;;;;;4885324;29;20246;-78
2021/05/14 03:26:44;;;;;;;3.47;2.70;;;;;;;;;;4906113;29;20225;-76
2021/05/14 03:29:12;;;;;;;5.10;2.73;;;;;;;;;;4910354;28;20244;-77
2021/05/14 03:31:40;;;;;;;3.33;2.73;;;;;;;;;;4906784;29;20237;-78
2021/05/14 03:34:08;;;;;;;2.67;2.43;;;;;;;;;;4906027;28;20237;-78
2021/05/14 03:36:36;;;;;;;3.60;2.80;;;;;;;;;;4902941;29;20232;-77
2021/05/14 03:39:08;;;;;;;5.37;2.63;;;;;;;;;;4898528;29;20232;-78
2021/05/14 03:41:48;;;;;;;3.53;2.67;;;;;;;;;;4901699;29;20236;-76
2021/05/14 03:44:16;;;;;;;4.60;2.80;;;;;;;;;;4901986;28;20230;-77
2021/05/14 03:46:44;;;;;;;3.90;3.50;;;;;;;;;;4903931;29;20239;-80
2021/05/14 03:49:12;;;;;;;3.57;2.90;;;;;;;;;;4889302;29;20251;-80
2021/05/14 03:51:40;;;;;;;4.17;3.77;;;;;;;;;;4907503;29;20220;-81
2021/05/14 03:54:09;;;;;;;3.87;3.40;;;;;;;;;;4877321;28;20235;-78
2021/05/14 03:56:37;;;;;;;3.53;2.90;;;;;;;;;;4900139;29;20240;-76
2021/05/14 03:59:05;;;;;;;3.10;2.80;;;;;;;;;;4905790;29;20239;-78
2021/05/14 04:01:33;;;;;;;3.33;3.03;;;;;;;;;;4907302;28;20305;-79
2021/05/14 04:04:02;;;;;;;3.93;2.63;;;;;;;;;;4907230;28;20248;-78
2021/05/14 04:06:30;;;;;;;3.90;3.00;;;;;;;;;;4904919;28;20234;-78
2021/05/14 04:08:58;;;;;;;3.30;3.00;;;;;;;;;;4906731;29;20244;-80
2021/05/14 04:11:56;;;;;;;3.90;3.33;;;;;;;;;;4902789;28;20243;-77
2021/05/14 04:14:30;;;;;;;4.37;3.10;;;;;;;;;;4899200;29;20247;-78
2021/05/14 04:17:06;;;;;;;3.73;3.17;;;;;;;;;;4904064;28;20247;-79
2021/05/14 04:19:34;;;;;;;5.13;3.03;;;;;;;;;;4888495;29;20232;-78
2021/05/14 04:22:05;;;;;;;5.43;3.60;;;;;;;;;;4898070;29;20741;-83
2021/05/14 04:24:33;;;;;;;4.97;3.30;;;;;;;;;;4896701;29;20615;-77
2021/05/14 04:27:01;;;;;;;3.20;2.90;;;;;;;;;;4906468;28;20247;-78
2021/05/14 04:29:30;;;;;;;4.37;3.20;;;;;;;;;;4889158;29;20232;-80
2021/05/14 04:31:58;;;;;;;5.77;2.80;;;;;;;;;;4889694;29;20233;-79
2021/05/14 04:34:28;;;;;;;4.93;3.20;;;;;;;;;;4919191;28;20232;-78
2021/05/14 04:37:03;;;;;;;3.73;2.60;;;;;;;;;;4914550;28;20251;-78
2021/05/14 04:39:31;;;;;;;5.27;2.73;;;;;;;;;;4902645;29;20232;-77
2021/05/14 04:41:59;;;;;;;2.63;2.43;;;;;;;;;;4899981;28;20235;-79
2021/05/14 04:44:28;;;;;;;3.83;3.10;;;;;;;;;;4895532;29;21914;-80
2021/05/14 04:46:57;;;;;;;3.97;3.00;;;;;;;;;;4905720;28;20231;-80
2021/05/14 04:49:25;;;;;;;2.87;2.60;;;;;;;;;;4896933;28;20245;-77
2021/05/14 04:51:53;;;;;;;3.63;2.70;;;;;;;;;;4899789;28;20228;-78
2021/05/14 04:54:22;;;;;;;2.40;2.20;;;;;;;;;;4902137;29;20235;-78
2021/05/14 04:56:51;;;;;;;3.70;2.63;;;;;;;;;;4892879;29;20239;-78
2021/05/14 04:59:19;;;;;;;3.40;3.10;;;;;;;;;;4899182;28;20232;-78
2021/05/14 05:01:47;;;;;;;3.70;3.30;;;;;;;;;;4897173;29;20223;-79
2021/05/14 05:04:17;;;;;;;3.70;3.10;;;;;;;;;;4902370;28;20748;-76
2021/05/14 05:06:45;;;;;;;4.77;3.40;;;;;;;;;;4903869;28;20238;-77
2021/05/14 05:09:13;;;;;;;3.33;2.87;;;;;;;;;;4902647;28;20245;-78
2021/05/14 05:11:41;;;;;;;4.70;3.20;;;;;;;;;;4901793;28;20228;-78
2021/05/14 05:14:09;;;;;;;4.63;3.60;;;;;;;;;;4902573;28;20869;-79
2021/05/14 05:16:37;;;;;;;4.53;3.60;;;;;;;;;;4912571;29;20232;-77
2021/05/14 05:19:05;;;;;;;4.23;3.60;;;;;;;;;;4903866;28;20236;-77
2021/05/14 05:21:34;;;;;;;5.40;3.40;;;;;;;;;;4900057;29;20247;-78
2021/05/14 05:24:03;;;;;;;3.80;3.50;;;;;;;;;;4893426;28;20232;-76
2021/05/14 05:26:31;;;;;;;4.20;3.80;;;;;;;;;;4884239;29;20247;-77
2021/05/14 05:28:59;;;;;;;3.67;2.80;;;;;;;;;;4911182;28;20248;-76
2021/05/14 05:31:27;;;;;;;5.33;3.10;;;;;;;;;;4899944;29;20247;-76
2021/05/14 05:33:55;;;;;;;3.97;3.30;;;;;;;;;;4894494;29;20238;-77
2021/05/14 05:36:23;;;;;;;3.83;3.40;;;;;;;;;;4897630;29;20224;-77
2021/05/14 05:38:54;;;;;;;4.13;3.13;;;;;;;;;;4896488;28;20224;-78
2021/05/14 05:41:22;;;;;;;3.63;3.30;;;;;;;;;;4896973;29;20244;-76
2021/05/14 05:43:50;;;;;;;6.40;3.73;;;;;;;;;;4906624;29;20231;-78
2021/05/14 05:46:19;;;;;;;6.73;3.43;;;;;;;;;;4893994;29;20614;-77
2021/05/14 05:48:49;;;;;;;4.17;3.10;;;;;;;;;;4896759;29;20239;-79
2021/05/14 05:51:17;;;;;;;5.00;2.70;;;;;;;;;;4900132;28;20227;-77
2021/05/14 05:53:45;;;;;;;3.13;2.60;;;;;;;;;;4883861;29;20232;-78
2021/05/14 05:56:13;;;;;;;4.87;2.60;;;;;;;;;;4883810;29;20227;-77
2021/05/14 05:58:41;;;;;;;2.93;2.43;;;;;;;;;;4884613;29;20250;-77
2021/05/14 06:01:10;;;;;;;2.67;2.40;;;;;;;;;;4896728;29;20245;-77
2021/05/14 06:03:38;;;;;;;4.67;3.10;;;;;;;;;;4900249;29;20240;-76
2021/05/14 06:06:06;;;;;;;3.50;2.83;;;;;;;;;;4893083;28;20232;-77
2021/05/14 06:08:34;;;;;;;2.73;2.43;;;;;;;;;;4884785;29;20801;-77
2021/05/14 06:11:03;;;;;;;3.67;2.93;;;;;;;;;;4902546;29;20231;-78
2021/05/14 06:13:32;;;;;;;3.50;2.27;;;;;;;;;;4904451;29;20236;-78
2021/05/14 06:16:01;;;;;;;3.20;2.20;;;;;;;;;;4897634;28;20701;-77
2021/05/14 06:18:34;;;;;;;3.60;2.37;;;;;;;;;;4898786;29;20251;-77
2021/05/14 06:21:04;;;;;;;2.43;1.90;;;;;;;;;;4888078;29;20237;-77
2021/05/14 06:23:32;;;;;;;2.40;2.00;;;;;;;;;;4873714;29;20240;-77
2021/05/14 06:26:00;;;;;;;2.20;2.00;;;;;;;;;;4905677;28;20236;-77
2021/05/14 06:28:28;;;;;;;3.63;2.53;;;;;;;;;;4874473;29;20236;-79
2021/05/14 06:30:57;;;;;;;2.43;2.23;;;;;;;;;;4901492;28;20232;-76
2021/05/14 06:33:27;;;;;;;3.23;2.40;;;;;;;;;;4910314;28;20223;-77
2021/05/14 06:35:57;;;;;;;1.80;1.50;;;;;;;;;;4909425;28;20227;-76
2021/05/14 06:38:25;;;;;;;1.70;1.10;;;;;;;;;;4921267;28;20239;-77
2021/05/14 06:40:53;;;;;;;2.33;1.27;;;;;;;;;;4913672;28;20231;-76
2021/05/14 06:43:22;;;;;;;1.20;1.10;;;;;;;;;;4895067;29;20239;-77
2021/05/14 06:45:49;;;;;;;1.30;1.10;;;;;;;;;;4891937;29;20262;-78
2021/05/14 06:48:18;;;;;;;1.30;1.20;;;;;;;;;;4905559;28;20251;-77
2021/05/14 06:50:46;;;;;;;3.90;1.07;;;;;;;;;;4892531;29;20323;-79
2021/05/14 06:53:16;;;;;;;1.13;1.03;;;;;;;;;;4893763;28;20721;-80
2021/05/14 06:55:44;;;;;;;1.97;1.30;;;;;;;;;;4912782;28;20270;-79
2021/05/14 06:58:14;;;;;;;2.27;1.63;;;;;;;;;;4907504;28;21531;-78
2021/05/14 07:00:42;;;;;;;2.70;1.97;;;;;;;;;;4886569;29;20244;-79
2021/05/14 07:03:11;;;;;;;1.90;1.63;;;;;;;;;;4905257;29;20224;-78
2021/05/14 07:05:39;;;;;;;2.10;1.90;;;;;;;;;;4902304;29;20227;-78
2021/05/14 07:08:07;;;;;;;2.43;1.70;;;;;;;;;;4902773;28;20614;-77
2021/05/14 07:10:36;;;;;;;2.30;1.80;;;;;;;;;;4903916;28;20239;-77
2021/05/14 07:13:04;;;;;;;2.47;1.80;;;;;;;;;;4906458;28;20224;-77
2021/05/14 07:15:32;;;;;;;3.03;2.10;;;;;;;;;;4907312;28;20231;-76
2021/05/14 07:18:00;;;;;;;1.70;1.57;;;;;;;;;;4897279;28;20235;-76
2021/05/14 07:20:29;;;;;;;3.57;2.03;;;;;;;;;;4901092;28;20236;-80
2021/05/14 07:22:58;;;;;;;1.87;1.60;;;;;;;;;;4896089;28;20239;-78
2021/05/14 07:25:26;;;;;;;6.07;1.60;;;;;;;;;;4891804;29;20235;-78
2021/05/14 07:27:54;;;;;;;1.60;1.47;;;;;;;;;;4894596;28;20224;-77
2021/05/14 07:30:22;;;;;;;3.00;1.63;;;;;;;;;;4905618;29;20236;-79
2021/05/14 07:32:50;;;;;;;4.43;2.67;;;;;;;;;;4896896;29;20228;-78
2021/05/14 07:35:18;;;;;;;3.53;2.10;;;;;;;;;;4903648;29;20251;-77
2021/05/14 07:38:07;;;;;;;3.93;1.53;;;;;;;;;;4902868;28;20733;-79
2021/05/14 07:40:35;;;;;;;1.90;1.40;;;;;;;;;;4905005;28;20730;-80
2021/05/14 07:43:03;;;;;;;2.20;1.40;;;;;;;;;;4896568;28;20584;-78
2021/05/14 07:45:31;;;;;;;1.43;1.33;;;;;;;;;;4890920;29;20707;-78
2021/05/14 07:48:04;;;;;;;2.30;1.50;;;;;;;;;;4904240;28;20228;-77
2021/05/14 07:50:33;;;;;;;3.07;1.50;;;;;;;;;;4896933;28;20224;-81
2021/05/14 07:53:02;;;;;;;3.27;1.77;;;;;;;;;;4896252;29;20247;-78
2021/05/14 07:55:31;;;;;;;2.37;1.97;;;;;;;;;;4903085;29;20228;-78
2021/05/14 07:57:59;;;;;;;2.20;1.47;;;;;;;;;;4917582;29;20237;-77
2021/05/14 08:00:27;;;;;;;1.60;1.13;;;;;;;;;;4906486;28;20228;-78
2021/05/14 08:02:55;;;;;;;2.50;1.30;;;;;;;;;;4889603;29;20237;-77
2021/05/14 08:05:23;;;;;;;2.80;1.40;;;;;;;;;;4894318;29;20231;-77
2021/05/14 08:08:01;;;;;;;4.77;1.40;;;;;;;;;;4912911;29;20231;-78
2021/05/14 08:10:30;;;;;;;1.97;1.53;;;;;;;;;;4902754;29;20227;-77
2021/05/14 08:13:18;;;;;;;1.13;1.03;;;;;;;;;;4911190;28;20235;-79
2021/05/14 08:15:46;;;;;;;2.93;1.43;;;;;;;;;;4913637;28;20232;-78
2021/05/14 08:18:17;;;;;;;4.20;1.57;;;;;;;;;;4912858;29;20236;-79
2021/05/14 08:20:45;;;;;;;1.67;0.80;;;;;;;;;;4913296;28;20740;-78
2021/05/14 08:23:15;;;;;;;1.90;0.90;;;;;;;;;;4911064;28;20589;-78
2021/05/14 08:25:44;;;;;;;0.67;0.50;;;;;;;;;;4903399;28;20236;-79
2021/05/14 08:28:12;;;;;;;0.80;0.80;;;;;;;;;;4894648;29;20240;-77
2021/05/14 08:30:41;;;;;;;1.30;0.93;;;;;;;;;;4923558;28;20598;-77
2021/05/14 08:33:09;;;;;;;2.23;0.70;;;;;;;;;;4922595;28;20221;-76
2021/05/14 08:35:38;;;;;;;0.90;0.70;;;;;;;;;;4892308;29;20235;-77
2021/05/14 08:38:07;;;;;;;0.73;0.70;;;;;;;;;;4895113;29;21772;-79
2021/05/14 08:40:37;;;;;;;0.70;0.70;;;;;;;;;;4903171;29;21240;-79
2021/05/14 08:43:10;;;;;;;1.40;0.90;;;;;;;;;;4907700;28;20236;-77
2021/05/14 08:45:39;;;;;;;0.93;0.70;;;;;;;;;;4906612;29;20240;-76
2021/05/14 08:48:12;;;;;;;1.17;0.80;;;;;;;;;;4904530;28;20232;-77
2021/05/14 08:50:41;;;;;;;2.60;0.83;;;;;;;;;;4891830;29;20722;-76
2021/05/14 08:53:29;;;;;;;1.40;0.70;;;;;;;;;;4906296;28;20237;-75
2021/05/14 08:55:57;;;;;;;0.73;0.67;;;;;;;;;;4916295;28;20489;-77
2021/05/14 08:58:27;;;;;;;1.73;0.70;;;;;;;;;;4903841;29;20236;-77
2021/05/14 09:00:55;;;;;;;0.70;0.70;;;;;;;;;;4896912;28;20246;-76
2021/05/14 09:03:26;;;;;;;0.87;0.70;;;;;;;;;;4905873;28;20239;-76
2021/05/14 09:05:56;;;;;;;1.87;0.70;;;;;;;;;;4906341;29;20236;-75
2021/05/14 09:08:29;;;;;;;3.80;0.70;;;;;;;;;;4897983;28;20690;-75
2021/05/14 09:10:57;;;;;;;1.63;1.27;;;;;;;;;;4899303;28;20220;-76
2021/05/14 09:13:36;;;;;;;2.07;0.80;;;;;;;;;;4870266;29;20232;-76
2021/05/14 09:16:05;;;;;;;1.53;0.83;;;;;;;;;;4876467;28;20235;-75
2021/05/14 09:18:33;;;;;;;1.93;0.73;;;;;;;;;;4878911;29;20742;-76
2021/05/14 09:21:02;;;;;;;2.57;0.83;;;;;;;;;;4888887;28;20736;-75
2021/05/14 09:23:34;;;;;;;1.63;0.90;;;;;;;;;;4875273;29;20240;-75
2021/05/14 09:26:03;;;;;;;2.27;0.97;;;;;;;;;;4874583;29;20232;-75
2021/05/14 09:28:33;;;;;;;1.10;0.97;;;;;;;;;;4899412;29;20244;-75
2021/05/14 09:31:05;;;;;;;1.13;0.97;;;;;;;;;;4883125;28;20239;-75
2021/05/14 09:33:34;;;;;;;1.50;1.00;;;;;;;;;;4873211;29;20737;-75
2021/05/14 09:36:04;;;;;;;2.17;1.10;;;;;;;;;;4879855;29;20239;-75
2021/05/14 09:38:43;;;;;;;1.57;1.47;;;;;;;;;;4894602;29;20231;-75
2021/05/14 09:41:32;;;;;;;1.67;0.90;;;;;;;;;;4899028;28;20227;-76
2021/05/14 09:44:02;;;;;;;1.97;1.03;;;;;;;;;;4934729;28;20239;-76
2021/05/14 09:46:33;;;;;;;1.60;1.00;;;;;;;;;;4913373;29;20797;-75
2021/05/14 09:49:08;;;;;;;1.83;1.10;;;;;;;;;;4906587;28;20243;-75
2021/05/14 09:51:48;;;;;;;1.17;0.90;;;;;;;;;;4902160;29;20236;-75
2021/05/14 09:54:21;;;;;;;0.93;0.87;;;;;;;;;;4899674;29;20713;-75
2021/05/14 09:57:30;;;;;;;1.80;1.10;;;;;;;;;;4894401;29;20224;-75
2021/05/14 09:59:59;;;;;;;2.10;1.30;;;;;;;;;;4912561;28;20240;-75
2021/05/14 10:02:30;;;;;;;1.40;0.90;;;;;;;;;;4900362;29;20228;-75
2021/05/14 10:04:59;;;;;;;1.47;1.37;;;;;;;;;;4897969;28;20710;-76
2021/05/14 10:07:30;;;;;;;1.47;1.07;;;;;;;;;;4875467;29;20598;-75
2021/05/14 10:10:00;;;;;;;3.05;1.35;;;;;;;;;;4898770;28;20240;-76
2021/05/14 10:12:29;;;;;;;2.22;1.48;;;;;;;;;;4899651;29;20235;-75
2021/05/14 10:14:58;;;;;;;2.90;1.15;;;;;;;;;;4877997;28;20271;-76
2021/05/14 10:17:26;;;;;;;3.15;1.40;;;;;;;;;;4892161;29;20229;-75
2021/05/14 10:19:57;;;;;;;1.63;1.38;;;;;;;;;;4887624;28;20255;-75
2021/05/14 10:22:27;;;;;;;1.80;1.20;;;;;;;;;;4886642;29;20234;-75
2021/05/14 10:24:58;;;;;;;1.25;0.98;;;;;;;;;;4872204;28;20224;-75
2021/05/14 10:27:28;;;;;;;1.27;1.02;;;;;;;;;;4895308;29;20238;-74
2021/05/14 10:29:57;;;;;;;2.92;1.42;;;;;;;;;;4892913;28;20753;-75
2021/05/14 10:32:54;;;;;;;1.95;1.33;;;;;;;;;;4892048;29;20235;-75
2021/05/14 10:35:28;;;;;;;2.42;1.50;;;;;;;;;;4910717;29;20605;-75
2021/05/14 10:38:02;;;;;;;1.85;1.35;;;;;;;;;;4897520;28;20233;-74
2021/05/14 10:40:43;;;;;;;2.67;1.35;;;;;;;;;;4901557;28;20231;-75
2021/05/14 10:43:13;;;;;;;3.05;1.38;;;;;;;;;;4887613;28;20240;-75
2021/05/14 10:45:43;;;;;;;2.30;1.33;;;;;;;;;;4892254;29;20243;-75
2021/05/14 10:48:18;;;;;;;2.63;1.50;;;;;;;;;;4888506;28;20243;-74
2021/05/14 10:50:52;;;;;;;2.85;1.35;;;;;;;;;;4888754;29;20255;-74
2021/05/14 10:53:35;;;;;;;3.20;1.10;;;;;;;;;;4905509;28;20231;-75
2021/05/14 10:56:49;;;;;;;1.63;1.02;;;;;;;;;;4907661;28;20243;-75
2021/05/14 10:59:32;;;;;;;3.42;1.30;;;;;;;;;;4891337;29;20229;-75
2021/05/14 11:02:00;;;;;;;3.58;0.95;;;;;;;;;;4906613;28;20228;-75
2021/05/14 11:04:42;;;;;;;1.42;0.82;;;;;;;;;;4909490;29;20231;-75
2021/05/14 11:07:39;;;;;;;1.92;0.90;;;;;;;;;;4884506;29;20228;-76
2021/05/14 11:10:29;;;;;;;2.08;0.90;;;;;;;;;;4909913;28;20246;-76
2021/05/14 11:12:58;;;;;;;1.40;0.82;;;;;;;;;;4893016;28;20231;-76
2021/05/14 11:15:35;;;;;;;1.45;0.88;;;;;;;;;;4908568;28;20247;-76
2021/05/14 11:18:24;;;;;;;1.33;1.02;;;;;;;;;;4905192;28;20318;-75
2021/05/14 11:20:53;;;;;;;3.20;1.08;;;;;;;;;;4893813;29;20235;-77
2021/05/14 11:23:43;;;;;;;2.17;1.13;;;;;;;;;;4909026;29;20249;-75
2021/05/14 11:26:18;;;;;;;1.10;1.00;;;;;;;;;;4892450;29;22940;-76
2021/05/14 11:28:48;;;;;;;1.50;0.95;;;;;;;;;;4909906;29;20231;-76
2021/05/14 11:31:17;;;;;;;1.30;0.98;;;;;;;;;;4893192;29;20243;-76
2021/05/14 11:33:47;;;;;;;1.05;0.80;;;;;;;;;;4909678;29;20239;-77
2021/05/14 11:36:20;;;;;;;2.35;1.25;;;;;;;;;;4894130;29;20574;-77
2021/05/14 11:38:51;;;;;;;2.10;0.98;;;;;;;;;;4913440;29;20736;-76
2021/05/14 11:41:26;;;;;;;1.33;1.17;;;;;;;;;;4910242;29;20228;-76
2021/05/14 11:43:59;;;;;;;1.95;1.30;;;;;;;;;;4923462;28;20235;-77
2021/05/14 11:46:31;;;;;;;4.28;2.92;;;;;;;;;;4912856;29;20544;-76
2021/05/14 11:49:03;;;;;;;2.40;1.60;;;;;;;;;;4912762;28;20233;-77
2021/05/14 11:51:31;;;;;;;3.08;2.78;;;;;;;;;;4907383;28;20369;-77
2021/05/14 11:54:09;;;;;;;2.17;1.15;;;;;;;;;;4912395;29;20745;-79
2021/05/14 11:56:37;;;;;;;1.67;0.90;;;;;;;;;;4908740;29;20252;-76
2021/05/14 11:59:05;;;;;;;1.20;1.10;;;;;;;;;;4920138;28;20228;-78
2021/05/14 12:01:38;;;;;;;2.97;1.20;;;;;;;;;;4901801;29;20232;-77
2021/05/14 12:04:07;;;;;;;2.08;1.10;;;;;;;;;;4909179;28;20228;-77
2021/05/14 12:06:46;;;;;;;1.65;1.15;;;;;;;;;;4905321;28;20236;-76
2021/05/14 12:09:15;;;;;;;1.60;1.27;;;;;;;;;;4900046;29;20247;-76
2021/05/14 12:11:45;;;;;;;1.48;0.90;;;;;;;;;;4903714;29;20236;-77
2021/05/14 12:14:22;;;;;;;1.58;0.90;;;;;;;;;;4888089;28;20236;-76
2021/05/14 12:16:50;;;;;;;2.42;1.20;;;;;;;;;;4876936;29;20224;-76
2021/05/14 12:19:18;;;;;;;0.80;0.80;;;;;;;;;;4904690;29;20259;-76
2021/05/14 12:21:47;;;;;;;1.38;0.85;;;;;;;;;;4908862;28;20235;-76
2021/05/14 12:24:18;;;;;;;0.90;0.80;;;;;;;;;;4900719;29;20605;-76
2021/05/14 12:26:47;;;;;;;1.48;1.00;;;;;;;;;;4887971;29;20248;-76
2021/05/14 12:29:22;;;;;;;1.77;0.80;;;;;;;;;;4905289;28;20710;-76
2021/05/14 12:31:55;;;;;;;1.00;0.90;;;;;;;;;;4903689;29;20262;-76
2021/05/14 12:34:23;;;;;;;1.77;1.08;;;;;;;;;;4899499;29;20236;-76
2021/05/14 12:36:53;;;;;;;1.60;1.17;;;;;;;;;;4883557;29;20241;-77
2021/05/14 12:39:23;;;;;;;0.82;0.82;;;;;;;;;;4890550;29;20241;-76
2021/05/14 12:41:57;;;;;;;1.02;0.80;;;;;;;;;;4891375;29;20706;-76
2021/05/14 12:44:28;;;;;;;1.13;0.90;;;;;;;;;;4897896;29;20240;-76
2021/05/14 12:47:07;;;;;;;2.35;1.80;;;;;;;;;;4896437;28;20236;-77
2021/05/14 12:49:43;;;;;;;4.07;1.65;;;;;;;;;;4893367;29;20236;-76
2021/05/14 12:52:13;;;;;;;1.05;0.90;;;;;;;;;;4896427;29;20242;-77
2021/05/14 12:54:52;;;;;;;1.13;0.90;;;;;;;;;;4904280;29;20235;-76
2021/05/14 12:57:31;;;;;;;1.33;0.98;;;;;;;;;;4904180;29;20231;-77
2021/05/14 13:00:01;;;;;;;1.45;1.00;;;;;;;;;;4901962;28;20239;-77
2021/05/14 13:02:30;;;;;;;1.15;0.93;;;;;;;;;;4902422;29;20251;-76
2021/05/14 13:05:01;;;;;;;1.52;1.17;;;;;;;;;;4905822;28;20707;-77
2021/05/14 13:08:03;;;;;;;0.95;0.95;;;;;;;;;;4896530;29;20600;-77
2021/05/14 13:10:44;;;;;;;1.98;1.00;;;;;;;;;;4900864;29;20247;-77
2021/05/14 13:13:13;;;;;;;1.75;1.00;;;;;;;;;;4896768;28;20243;-77
2021/05/14 13:15:41;;;;;;;1.00;0.90;;;;;;;;;;4909765;28;20235;-76
2021/05/14 13:18:09;;;;;;;1.05;0.95;;;;;;;;;;4905381;29;20232;-77
2021/05/14 13:20:37;;;;;;;1.38;0.90;;;;;;;;;;4895536;29;20227;-77
2021/05/14 13:23:23;;;;;;;2.28;1.50;;;;;;;;;;4901280;29;20236;-77
2021/05/14 13:25:52;;;;;;;1.10;1.00;;;;;;;;;;4898882;29;20236;-77
2021/05/14 13:28:21;;;;;;;1.10;1.00;;;;;;;;;;4906990;28;20248;-78
2021/05/14 13:30:50;;;;;;;2.33;1.17;;;;;;;;;;4911005;28;20247;-77
2021/05/14 13:33:18;;;;;;;35.85;7.95;;;;;;;;;;4906816;29;20230;-76
2021/05/14 13:35:46;;;;;;;2.25;1.20;;;;;;;;;;4910673;29;20251;-77
2021/05/14 13:38:15;;;;;;;5.30;1.23;;;;;;;;;;4908298;28;20262;-77
2021/05/14 13:40:44;;;;;;;18.55;7.45;;;;;;;;;;4909595;28;20235;-76
2021/05/14 13:43:13;;;;;;;3.38;1.55;;;;;;;;;;4907560;28;20239;-76
2021/05/14 13:45:54;;;;;;;0.85;0.85;;;;;;;;;;4910207;29;20247;-77
2021/05/14 13:48:24;;;;;;;0.90;0.90;;;;;;;;;;4909631;29;20235;-77
2021/05/14 13:50:52;;;;;;;1.52;0.77;;;;;;;;;;4909786;28;20232;-78
2021/05/14 13:53:24;;;;;;;1.30;0.80;;;;;;;;;;4909765;29;20298;-76
2021/05/14 13:55:54;;;;;;;1.63;0.90;;;;;;;;;;4906821;28;20224;-77
2021/05/14 13:58:23;;;;;;;1.95;0.82;;;;;;;;;;4910158;28;20232;-77
2021/05/14 14:00:51;;;;;;;1.77;0.90;;;;;;;;;;4907186;29;20224;-76
2021/05/14 14:03:19;;;;;;;1.65;1.00;;;;;;;;;;4908546;28;20224;-77
2021/05/14 14:05:47;;;;;;;0.98;0.70;;;;;;;;;;4904961;29;20229;-77
2021/05/14 14:08:15;;;;;;;1.92;0.80;;;;;;;;;;4909856;28;20757;-77
2021/05/14 14:10:43;;;;;;;1.10;0.82;;;;;;;;;;4912557;28;20219;-77
2021/05/14 14:13:13;;;;;;;1.52;1.20;;;;;;;;;;4887570;28;20235;-77
2021/05/14 14:15:42;;;;;;;2.88;1.08;;;;;;;;;;4900339;29;20233;-77
2021/05/14 14:18:10;;;;;;;2.40;1.00;;;;;;;;;;4901528;29;20228;-76
2021/05/14 14:20:38;;;;;;;1.08;0.73;;;;;;;;;;4910632;29;20694;-76
2021/05/14 14:23:06;;;;;;;1.08;0.95;;;;;;;;;;4900318;28;20259;-76
2021/05/14 14:25:34;;;;;;;1.95;0.85;;;;;;;;;;4902489;28;20242;-76
2021/05/14 14:28:02;;;;;;;1.98;0.90;;;;;;;;;;4905748;29;20237;-76
2021/05/14 14:30:31;;;;;;;1.30;1.00;;;;;;;;;;4905967;29;20239;-76
2021/05/14 14:33:00;;;;;;;2.47;0.90;;;;;;;;;;4910248;29;20239;-76
2021/05/14 14:35:28;;;;;;;1.55;0.93;;;;;;;;;;4893234;29;20232;-76
2021/05/14 14:38:13;;;;;;;1.98;1.05;;;;;;;;;;4901830;29;20244;-76
2021/05/14 14:40:41;;;;;;;1.25;0.80;;;;;;;;;;4895543;29;20239;-76
2021/05/14 14:43:10;;;;;;;2.70;0.93;;;;;;;;;;4905883;28;20596;-76
2021/05/14 14:45:38;;;;;;;1.73;0.80;;;;;;;;;;4906349;28;20241;-76
2021/05/14 14:48:07;;;;;;;1.92;1.00;;;;;;;;;;4908406;29;20235;-76
2021/05/14 14:50:35;;;;;;;1.35;0.90;;;;;;;;;;4902815;29;20227;-77
2021/05/14 14:53:06;;;;;;;1.67;1.00;;;;;;;;;;4905871;28;20243;-77
2021/05/14 14:55:34;;;;;;;2.33;1.50;;;;;;;;;;4910686;29;20233;-76
2021/05/14 14:58:03;;;;;;;1.50;1.10;;;;;;;;;;4895749;28;20334;-77
2021/05/14 15:00:31;;;;;;;1.20;0.90;;;;;;;;;;4905242;29;20671;-78
2021/05/14 15:02:59;;;;;;;2.50;1.40;;;;;;;;;;4889013;29;20220;-77